Tulsa, OK

6:20 AM CST on February 26, 2017 (GMT -0600)
Maple Ridge | | Change Station

Elev 738 ft 36.14 °N, 95.98 °W | Updated 7 minutes ago

Mostly Cloudy
Mostly Cloudy
39.5 °F
Feels Like 40 °F
N
3.0
Wind Variable Wind from South
Gusts 5.0 mph

Today
High -- | Low -- °F
--% Chance of Precip.
Yesterday
High -- | Low -- °F
Precip. -- in
Pressure 30.00 in
Visibility 10.0 miles
Clouds Mostly Cloudy 8000 ft
Overcast 10000 ft
Windchill 40 °F
Dew Point 23 °F
Humidity 52%
Rainfall 0.00 in
Snow Depth Not available.
6:57 AM 6:16 PM
Waning Crescent, 0% visible
METAR KTUL 261153Z 16005KT 10SM BKN080 OVC100 04/M06 A2999 RMK AO2 SLP157 T00441061 10044 20006 55008
Pressure 30.00 in
Visibility 10.0 miles
Clouds Mostly Cloudy 8000 ft
Overcast 10000 ft
Windchill 40 °F
Dew Point 23 °F
Humidity 52%
Rainfall 0.00 in
Snow Depth Not available.
6:57 AM 6:16 PM
Waning Crescent, 0% visible
METAR KTUL 261153Z 16005KT 10SM BKN080 OVC100 04/M06 A2999 RMK AO2 SLP157 T00441061 10044 20006 55008

Get Your Daily Forecast Email!

Thanks for signing up!

Be on the lookout for a verification email in your inbox.

You'll start receiving the daily forecast at 8 AM.

×

10-Day Weather Forecast

Almanac

Astronomy

Feb. 26, 2017 Rise Set
Actual Time
Civil Twilight
Nautical Twilight
Astronomical Twilight
Moon
Length of Visible Light
Length of Day
Tomorrow will be .
, % of the Moon is Illuminated

Today's Extremes

State Highs State Lows

Community

WunderPhotos

Upload Photos

1,962,540 photos uploaded!

WunderBlog® & News

Nearby

Air Quality

  Air Quality AQ Index Pollutant
Not available.

Snow Depth

Station Depth Elevation

Earthquake Activity

City Distance Mag. Time & Date
Minimum magnitude displayed is 2.5.

Coastal Water Temperatures

Place Temperature

Stations

Nearby Weather Stations

Station Location Temp. Windchill Dew Point Humidity Wind Precip. Elev Updated Type
                   

Watches & Warnings

There are currently no watches in effect.